西安 の空港の天気 - METARとTAF

西安咸陽国際空港 ( ZLXY / XIY ) - 中国 陝西省西安市
飛行場実況気象(Metar)
観測時間07/19 01:00 CST (07/18 17:00 UTC)
風向・風速静穏 0m/s
視程3200m
天気現象もや
全天の4割程度の雲 雲底高度 1010m
全天を覆う雲 雲底高度 1830m
気温22℃
湿度100%
気圧1008hPa
METARZLXY 181700Z 00000MPS 3200 BR SCT033 OVC060 22/22 Q1008 NOSIG
過去の天気等 Google飛行場航空写真 Wunderground天気予報

過去48時間のMETAR

飛行場予報(TAF)
発表時間: 7/18 17:08 CST (7/18 09:08 UTC)
予報対象時間: 18日20時 CST ~ 19日20時 CST
風向・風速東 3m/s
視程3000m
天気現象もや
全天の4割程度の雲 雲底高度 610m
全天を覆う雲 雲底高度 1830m
19日4時 CST ~ 19日5時 CST に徐々に
視程2700m
天気現象弱い雨 もや
19日10時 CST ~ 19日11時 CST に徐々に
視程3000m
天気現象もや
TAF ZLXY 180908Z 1812/1912 08003MPS 3000 BR SCT020 OVC060 TX24/1908Z TN21/1822Z
BECMG 1820/1821 2700 -RA BR
BECMG 1902/1903 3000 BR